Terminal Aerodrome Forecast
Issued by NWS Amarillo, TX

Home | Current Version | Previous Version | Text Only | Print | Product List | Glossary On
Versions: 1 2 3 4 5 6 7 8 9 10 11 12 13 14 15 16 17
971
FTUS44 KAMA 201442 AAA
TAFAMA
TAF AMD
KAMA 201442Z 2015/2112 01015G23KT 2SM BR OVC002
      TEMPO 2015/2016 1 1/2SM BR
     FM201800 36014KT 5SM BR BKN010
     FM202200 04015KT P6SM BKN025 OVC050=

USA.gov is the U.S. government's official web portal to all federal, state and local government web resources and services.